sensor_id;sensor_type;location;lat;lon;timestamp;pressure;altitude;pressure_sealevel;temperature;humidity
35910;BME280;22004;49.120;-0.200;2023-07-29T00:00:32;100711.41;;;18.04;89.33
35910;BME280;22004;49.120;-0.200;2023-07-29T00:02:57;100716.59;;;18.36;87.89
35910;BME280;22004;49.120;-0.200;2023-07-29T00:05:23;100724.09;;;18.10;89.11
35910;BME280;22004;49.120;-0.200;2023-07-29T00:07:48;100718.84;;;17.97;89.32
35910;BME280;22004;49.120;-0.200;2023-07-29T00:10:13;100727.66;;;18.22;88.59
35910;BME280;22004;49.120;-0.200;2023-07-29T00:12:39;100725.91;;;18.28;88.16
35910;BME280;22004;49.120;-0.200;2023-07-29T00:15:05;100726.88;;;18.03;89.04
35910;BME280;22004;49.120;-0.200;2023-07-29T00:17:30;100722.69;;;17.89;90.14
35910;BME280;22004;49.120;-0.200;2023-07-29T00:19:55;100719.81;;;18.02;89.63
35910;BME280;22004;49.120;-0.200;2023-07-29T00:22:21;100725.22;;;18.02;89.87
35910;BME280;22004;49.120;-0.200;2023-07-29T00:24:51;100722.38;;;18.27;88.33
35910;BME280;22004;49.120;-0.200;2023-07-29T00:27:18;100717.34;;;18.13;88.65
35910;BME280;22004;49.120;-0.200;2023-07-29T00:29:43;100721.50;;;18.15;88.07
35910;BME280;22004;49.120;-0.200;2023-07-29T00:32:09;100721.06;;;18.00;88.88
35910;BME280;22004;49.120;-0.200;2023-07-29T00:34:34;100725.50;;;18.13;88.70
35910;BME280;22004;49.120;-0.200;2023-07-29T00:36:59;100724.09;;;18.10;88.31
35910;BME280;22004;49.120;-0.200;2023-07-29T00:39:25;100734.03;;;17.86;88.76
35910;BME280;22004;49.120;-0.200;2023-07-29T00:41:50;100729.81;;;17.90;89.11
35910;BME280;22004;49.120;-0.200;2023-07-29T00:44:16;100730.06;;;18.00;88.78
35910;BME280;22004;49.120;-0.200;2023-07-29T00:46:42;100731.44;;;18.21;88.21
35910;BME280;22004;49.120;-0.200;2023-07-29T00:49:08;100736.50;;;18.18;87.24
35910;BME280;22004;49.120;-0.200;2023-07-29T00:51:34;100741.91;;;18.06;88.22
35910;BME280;22004;49.120;-0.200;2023-07-29T00:54:00;100738.81;;;18.02;88.03
35910;BME280;22004;49.120;-0.200;2023-07-29T00:56:25;100736.19;;;17.96;88.69
35910;BME280;22004;49.120;-0.200;2023-07-29T00:58:50;100734.97;;;18.10;88.21
35910;BME280;22004;49.120;-0.200;2023-07-29T01:01:21;100737.88;;;18.08;87.86
35910;BME280;22004;49.120;-0.200;2023-07-29T01:03:47;100729.13;;;18.37;86.47
35910;BME280;22004;49.120;-0.200;2023-07-29T01:06:18;100736.34;;;18.01;87.48
35910;BME280;22004;49.120;-0.200;2023-07-29T01:09:17;100737.88;;;18.08;88.10
35910;BME280;22004;49.120;-0.200;2023-07-29T01:14:33;100727.28;;;17.89;87.91
35910;BME280;22004;49.120;-0.200;2023-07-29T01:17:08;100719.06;;;17.95;87.84
35910;BME280;22004;49.120;-0.200;2023-07-29T01:19:41;100726.31;;;17.83;87.15
35910;BME280;22004;49.120;-0.200;2023-07-29T01:22:08;100724.84;;;17.99;87.65
35910;BME280;22004;49.120;-0.200;2023-07-29T01:24:33;100721.03;;;17.70;87.98
35910;BME280;22004;49.120;-0.200;2023-07-29T01:26:59;100713.66;;;17.77;88.57
35910;BME280;22004;49.120;-0.200;2023-07-29T01:29:26;100710.94;;;17.58;87.94
35910;BME280;22004;49.120;-0.200;2023-07-29T01:31:54;100707.84;;;17.92;88.67
35910;BME280;22004;49.120;-0.200;2023-07-29T01:37:37;100710.31;;;17.93;87.79
35910;BME280;22004;49.120;-0.200;2023-07-29T01:40:04;100709.66;;;17.79;87.64
35910;BME280;22004;49.120;-0.200;2023-07-29T01:42:32;100709.66;;;17.79;87.86
35910;BME280;22004;49.120;-0.200;2023-07-29T01:44:57;100711.09;;;17.82;87.59
35910;BME280;22004;49.120;-0.200;2023-07-29T01:47:23;100708.81;;;17.79;87.75
35910;BME280;22004;49.120;-0.200;2023-07-29T01:49:48;100710.09;;;17.58;88.40
35910;BME280;22004;49.120;-0.200;2023-07-29T01:52:13;100710.53;;;17.55;88.06
35910;BME280;22004;49.120;-0.200;2023-07-29T01:54:39;100713.19;;;17.80;87.63
35910;BME280;22004;49.120;-0.200;2023-07-29T01:57:04;100710.47;;;17.80;86.67
35910;BME280;22004;49.120;-0.200;2023-07-29T01:59:29;100706.66;;;17.33;87.81
35910;BME280;22004;49.120;-0.200;2023-07-29T02:01:55;100709.72;;;17.54;89.04
35910;BME280;22004;49.120;-0.200;2023-07-29T02:04:20;100706.88;;;17.49;88.67
35910;BME280;22004;49.120;-0.200;2023-07-29T02:06:45;100715.00;;;17.68;87.75
35910;BME280;22004;49.120;-0.200;2023-07-29T02:09:11;100707.97;;;17.60;88.34
35910;BME280;22004;49.120;-0.200;2023-07-29T02:11:36;100710.41;;;17.50;88.00
35910;BME280;22004;49.120;-0.200;2023-07-29T02:14:01;100699.69;;;17.55;87.70
35910;BME280;22004;49.120;-0.200;2023-07-29T02:16:27;100692.34;;;17.92;87.55
35910;BME280;22004;49.120;-0.200;2023-07-29T02:18:52;100688.72;;;17.31;88.26
35910;BME280;22004;49.120;-0.200;2023-07-29T02:21:17;100688.41;;;17.76;87.50
35910;BME280;22004;49.120;-0.200;2023-07-29T02:23:43;100673.59;;;17.54;88.67
35910;BME280;22004;49.120;-0.200;2023-07-29T02:26:08;100692.78;;;17.77;88.27
35910;BME280;22004;49.120;-0.200;2023-07-29T02:28:33;100693.88;;;17.70;88.08
35910;BME280;22004;49.120;-0.200;2023-07-29T02:31:19;100699.38;;;17.63;86.72
35910;BME280;22004;49.120;-0.200;2023-07-29T02:33:45;100697.16;;;17.42;88.00
35910;BME280;22004;49.120;-0.200;2023-07-29T02:36:11;100697.75;;;17.44;88.21
35910;BME280;22004;49.120;-0.200;2023-07-29T02:38:37;100705.66;;;17.64;88.15
35910;BME280;22004;49.120;-0.200;2023-07-29T02:41:03;100701.56;;;17.91;87.33
35910;BME280;22004;49.120;-0.200;2023-07-29T02:43:28;100698.13;;;17.47;87.37
35910;BME280;22004;49.120;-0.200;2023-07-29T02:45:53;100705.72;;;17.20;88.87
35910;BME280;22004;49.120;-0.200;2023-07-29T02:48:19;100708.59;;;17.62;89.68
35910;BME280;22004;49.120;-0.200;2023-07-29T02:50:44;100714.72;;;17.76;88.67
35910;BME280;22004;49.120;-0.200;2023-07-29T02:53:09;100709.06;;;17.22;89.88
35910;BME280;22004;49.120;-0.200;2023-07-29T02:55:35;100716.81;;;17.37;88.89
35910;BME280;22004;49.120;-0.200;2023-07-29T02:58:00;100706.72;;;17.44;88.52
35910;BME280;22004;49.120;-0.200;2023-07-29T03:00:25;100695.25;;;17.61;88.09
35910;BME280;22004;49.120;-0.200;2023-07-29T03:02:51;100696.28;;;17.60;88.50
35910;BME280;22004;49.120;-0.200;2023-07-29T03:05:16;100697.34;;;17.58;87.90
35910;BME280;22004;49.120;-0.200;2023-07-29T03:07:41;100702.94;;;17.64;87.87
35910;BME280;22004;49.120;-0.200;2023-07-29T03:10:07;100707.25;;;17.53;88.05
35910;BME280;22004;49.120;-0.200;2023-07-29T03:12:32;100713.34;;;17.67;87.80
35910;BME280;22004;49.120;-0.200;2023-07-29T03:14:58;100696.50;;;17.95;86.79
35910;BME280;22004;49.120;-0.200;2023-07-29T03:17:25;100706.31;;;17.96;86.64
35910;BME280;22004;49.120;-0.200;2023-07-29T03:19:50;100706.19;;;17.91;86.52
35910;BME280;22004;49.120;-0.200;2023-07-29T03:22:15;100718.59;;;17.98;87.73
35910;BME280;22004;49.120;-0.200;2023-07-29T03:24:41;100712.06;;;18.18;86.90
35910;BME280;22004;49.120;-0.200;2023-07-29T03:27:07;100714.19;;;18.16;86.78
35910;BME280;22004;49.120;-0.200;2023-07-29T03:29:35;100715.75;;;17.93;87.03
35910;BME280;22004;49.120;-0.200;2023-07-29T03:32:00;100712.09;;;17.99;87.37
35910;BME280;22004;49.120;-0.200;2023-07-29T03:34:25;100707.34;;;17.95;87.14
35910;BME280;22004;49.120;-0.200;2023-07-29T03:36:51;100698.19;;;17.59;88.04
35910;BME280;22004;49.120;-0.200;2023-07-29T03:39:16;100706.09;;;17.79;88.82
35910;BME280;22004;49.120;-0.200;2023-07-29T03:41:42;100703.66;;;17.41;89.67
35910;BME280;22004;49.120;-0.200;2023-07-29T03:44:07;100701.28;;;17.63;89.58
35910;BME280;22004;49.120;-0.200;2023-07-29T03:46:33;100699.53;;;17.87;88.00
35910;BME280;22004;49.120;-0.200;2023-07-29T03:48:58;100700.38;;;17.87;88.34
35910;BME280;22004;49.120;-0.200;2023-07-29T03:51:23;100700.81;;;17.84;87.88
35910;BME280;22004;49.120;-0.200;2023-07-29T03:53:50;100707.59;;;17.93;87.61
35910;BME280;22004;49.120;-0.200;2023-07-29T03:56:15;100701.59;;;17.73;88.94
35910;BME280;22004;49.120;-0.200;2023-07-29T03:58:41;100712.00;;;17.76;89.11
35910;BME280;22004;49.120;-0.200;2023-07-29T04:01:06;100705.75;;;17.75;89.28
35910;BME280;22004;49.120;-0.200;2023-07-29T04:03:33;100708.13;;;17.65;89.97
35910;BME280;22004;49.120;-0.200;2023-07-29T04:05:58;100700.34;;;17.75;89.51
35910;BME280;22004;49.120;-0.200;2023-07-29T04:08:24;100702.50;;;17.67;89.52
35910;BME280;22004;49.120;-0.200;2023-07-29T04:10:49;100703.31;;;17.49;90.60
35910;BME280;22004;49.120;-0.200;2023-07-29T04:13:15;100696.84;;;17.87;89.36
35910;BME280;22004;49.120;-0.200;2023-07-29T04:15:40;100697.03;;;17.85;88.78
35910;BME280;22004;49.120;-0.200;2023-07-29T04:18:05;100704.00;;;17.63;90.45
35910;BME280;22004;49.120;-0.200;2023-07-29T04:20:31;100704.75;;;17.88;89.22
35910;BME280;22004;49.120;-0.200;2023-07-29T04:22:56;100707.75;;;17.80;89.47
35910;BME280;22004;49.120;-0.200;2023-07-29T04:25:21;100706.72;;;17.81;89.75
35910;BME280;22004;49.120;-0.200;2023-07-29T04:27:47;100701.78;;;17.90;89.32
35910;BME280;22004;49.120;-0.200;2023-07-29T04:30:12;100697.50;;;17.64;90.72
35910;BME280;22004;49.120;-0.200;2023-07-29T04:32:37;100692.66;;;17.84;89.78
35910;BME280;22004;49.120;-0.200;2023-07-29T04:35:03;100701.00;;;17.52;91.66
35910;BME280;22004;49.120;-0.200;2023-07-29T04:37:28;100702.81;;;17.77;90.85
35910;BME280;22004;49.120;-0.200;2023-07-29T04:39:54;100702.47;;;17.85;90.12
35910;BME280;22004;49.120;-0.200;2023-07-29T04:42:19;100699.25;;;17.76;90.35
35910;BME280;22004;49.120;-0.200;2023-07-29T04:44:44;100700.81;;;17.84;89.85
35910;BME280;22004;49.120;-0.200;2023-07-29T04:47:10;100700.91;;;17.77;90.86
35910;BME280;22004;49.120;-0.200;2023-07-29T04:49:35;100695.75;;;17.69;91.58
35910;BME280;22004;49.120;-0.200;2023-07-29T04:52:00;100693.16;;;17.81;90.72
35910;BME280;22004;49.120;-0.200;2023-07-29T04:54:26;100706.03;;;17.67;91.38
35910;BME280;22004;49.120;-0.200;2023-07-29T04:56:51;100707.75;;;17.80;91.11
35910;BME280;22004;49.120;-0.200;2023-07-29T04:59:16;100703.63;;;17.77;91.02
35910;BME280;22004;49.120;-0.200;2023-07-29T05:01:42;100701.06;;;17.82;90.95
35910;BME280;22004;49.120;-0.200;2023-07-29T05:04:08;100705.25;;;17.97;90.01
35910;BME280;22004;49.120;-0.200;2023-07-29T05:06:33;100713.44;;;17.78;90.91
35910;BME280;22004;49.120;-0.200;2023-07-29T05:09:12;100705.13;;;17.73;91.37
35910;BME280;22004;49.120;-0.200;2023-07-29T05:11:38;100704.59;;;17.83;91.03
35910;BME280;22004;49.120;-0.200;2023-07-29T05:14:03;100697.81;;;17.74;91.78
35910;BME280;22004;49.120;-0.200;2023-07-29T05:16:31;100697.50;;;17.82;91.15
35910;BME280;22004;49.120;-0.200;2023-07-29T05:18:56;100699.25;;;17.76;91.62
35910;BME280;22004;49.120;-0.200;2023-07-29T05:21:22;100701.28;;;17.81;91.39
35910;BME280;22004;49.120;-0.200;2023-07-29T05:23:47;100708.13;;;17.83;91.27
35910;BME280;22004;49.120;-0.200;2023-07-29T05:26:12;100703.09;;;17.87;91.11
35910;BME280;22004;49.120;-0.200;2023-07-29T05:28:38;100704.06;;;17.93;90.80
35910;BME280;22004;49.120;-0.200;2023-07-29T05:31:03;100713.13;;;17.87;91.20
35910;BME280;22004;49.120;-0.200;2023-07-29T05:33:28;100707.00;;;17.91;91.14
35910;BME280;22004;49.120;-0.200;2023-07-29T05:35:54;100714.00;;;17.99;90.85
35910;BME280;22004;49.120;-0.200;2023-07-29T05:38:20;100711.28;;;17.99;91.02
35910;BME280;22004;49.120;-0.200;2023-07-29T05:40:45;100715.63;;;18.00;90.78
35910;BME280;22004;49.120;-0.200;2023-07-29T05:43:12;100715.97;;;18.22;90.18
35910;BME280;22004;49.120;-0.200;2023-07-29T05:45:39;100717.31;;;18.43;89.88
35910;BME280;22004;49.120;-0.200;2023-07-29T05:48:04;100713.53;;;18.44;89.24
35910;BME280;22004;49.120;-0.200;2023-07-29T05:50:30;100716.16;;;18.50;89.16
35910;BME280;22004;49.120;-0.200;2023-07-29T05:52:55;100706.47;;;18.54;89.62
35910;BME280;22004;49.120;-0.200;2023-07-29T05:55:20;100701.34;;;18.34;89.92
35910;BME280;22004;49.120;-0.200;2023-07-29T05:57:46;100703.78;;;18.24;89.58
35910;BME280;22004;49.120;-0.200;2023-07-29T06:00:11;100699.47;;;18.35;89.92
35910;BME280;22004;49.120;-0.200;2023-07-29T06:02:37;100699.50;;;18.47;89.37
35910;BME280;22004;49.120;-0.200;2023-07-29T06:05:02;100698.19;;;18.49;88.49
35910;BME280;22004;49.120;-0.200;2023-07-29T06:07:29;100696.41;;;18.43;88.92
35910;BME280;22004;49.120;-0.200;2023-07-29T06:09:56;100694.03;;;18.35;89.11
35910;BME280;22004;49.120;-0.200;2023-07-29T06:12:21;100701.47;;;18.40;89.00
35910;BME280;22004;49.120;-0.200;2023-07-29T06:14:46;100706.53;;;18.78;87.93
35910;BME280;22004;49.120;-0.200;2023-07-29T06:17:12;100702.41;;;18.87;88.04
35910;BME280;22004;49.120;-0.200;2023-07-29T06:19:37;100704.41;;;18.80;86.66
35910;BME280;22004;49.120;-0.200;2023-07-29T06:22:03;100712.81;;;18.90;87.65
35910;BME280;22004;49.120;-0.200;2023-07-29T06:24:30;100715.28;;;18.92;87.35
35910;BME280;22004;49.120;-0.200;2023-07-29T06:26:55;100717.66;;;18.76;87.76
35910;BME280;22004;49.120;-0.200;2023-07-29T06:29:21;100706.38;;;18.61;88.44
35910;BME280;22004;49.120;-0.200;2023-07-29T06:31:46;100710.19;;;18.83;87.81
35910;BME280;22004;49.120;-0.200;2023-07-29T06:34:11;100707.97;;;18.92;86.81
35910;BME280;22004;49.120;-0.200;2023-07-29T06:36:37;100712.09;;;19.06;86.34
35910;BME280;22004;49.120;-0.200;2023-07-29T06:39:02;100706.72;;;19.47;84.84
35910;BME280;22004;49.120;-0.200;2023-07-29T06:41:27;100703.13;;;19.98;82.30
35910;BME280;22004;49.120;-0.200;2023-07-29T06:43:53;100708.00;;;20.25;80.74
35910;BME280;22004;49.120;-0.200;2023-07-29T06:46:18;100709.63;;;20.71;79.42
35910;BME280;22004;49.120;-0.200;2023-07-29T06:48:43;100709.38;;;21.28;76.87
35910;BME280;22004;49.120;-0.200;2023-07-29T06:51:09;100717.91;;;21.32;76.06
35910;BME280;22004;49.120;-0.200;2023-07-29T06:53:34;100717.19;;;21.80;74.68
35910;BME280;22004;49.120;-0.200;2023-07-29T06:55:59;100719.88;;;22.02;72.11
35910;BME280;22004;49.120;-0.200;2023-07-29T06:58:25;100714.63;;;22.23;72.42
35910;BME280;22004;49.120;-0.200;2023-07-29T07:00:50;100725.22;;;21.92;73.30
35910;BME280;22004;49.120;-0.200;2023-07-29T07:03:15;100730.91;;;21.63;74.28
35910;BME280;22004;49.120;-0.200;2023-07-29T07:05:41;100726.81;;;21.88;74.18
35910;BME280;22004;49.120;-0.200;2023-07-29T07:08:06;100722.88;;;22.01;73.34
35910;BME280;22004;49.120;-0.200;2023-07-29T07:10:31;100731.88;;;22.50;72.46
35910;BME280;22004;49.120;-0.200;2023-07-29T07:12:59;100735.81;;;22.64;71.33
35910;BME280;22004;49.120;-0.200;2023-07-29T07:15:24;100747.03;;;21.87;72.66
35910;BME280;22004;49.120;-0.200;2023-07-29T07:17:51;100741.84;;;22.34;70.77
35910;BME280;22004;49.120;-0.200;2023-07-29T07:20:16;100749.88;;;23.10;68.84
35910;BME280;22004;49.120;-0.200;2023-07-29T07:22:42;100743.09;;;22.49;71.18
35910;BME280;22004;49.120;-0.200;2023-07-29T07:25:07;100747.38;;;21.30;73.83
35910;BME280;22004;49.120;-0.200;2023-07-29T07:27:33;100743.88;;;21.73;74.04
35910;BME280;22004;49.120;-0.200;2023-07-29T07:29:58;100751.44;;;21.10;76.45
35910;BME280;22004;49.120;-0.200;2023-07-29T07:32:23;100743.03;;;20.95;77.47
35910;BME280;22004;49.120;-0.200;2023-07-29T07:34:49;100742.91;;;21.40;77.01
35910;BME280;22004;49.120;-0.200;2023-07-29T07:37:14;100747.56;;;23.34;69.24
35910;BME280;22004;49.120;-0.200;2023-07-29T07:39:39;100747.84;;;23.33;69.43
35910;BME280;22004;49.120;-0.200;2023-07-29T07:42:05;100746.44;;;23.30;68.10
35910;BME280;22004;49.120;-0.200;2023-07-29T07:44:31;100746.84;;;23.54;67.33
35910;BME280;22004;49.120;-0.200;2023-07-29T07:46:56;100741.09;;;22.76;68.45
35910;BME280;22004;49.120;-0.200;2023-07-29T07:49:22;100748.00;;;22.79;68.04
35910;BME280;22004;49.120;-0.200;2023-07-29T07:51:47;100743.66;;;22.02;71.36
35910;BME280;22004;49.120;-0.200;2023-07-29T07:54:12;100748.22;;;21.30;72.38
35910;BME280;22004;49.120;-0.200;2023-07-29T07:56:38;100744.09;;;21.11;73.80
35910;BME280;22004;49.120;-0.200;2023-07-29T07:59:03;100745.66;;;21.24;74.94
35910;BME280;22004;49.120;-0.200;2023-07-29T08:01:34;100746.53;;;21.29;74.98
35910;BME280;22004;49.120;-0.200;2023-07-29T08:03:59;100744.56;;;21.25;73.85
35910;BME280;22004;49.120;-0.200;2023-07-29T08:06:25;100746.88;;;21.33;74.15
35910;BME280;22004;49.120;-0.200;2023-07-29T08:08:50;100741.84;;;21.25;74.83
35910;BME280;22004;49.120;-0.200;2023-07-29T08:11:15;100742.75;;;21.30;74.18
35910;BME280;22004;49.120;-0.200;2023-07-29T08:13:40;100746.53;;;21.46;75.06
35910;BME280;22004;49.120;-0.200;2023-07-29T08:16:06;100745.13;;;21.44;74.91
35910;BME280;22004;49.120;-0.200;2023-07-29T08:18:31;100736.44;;;21.30;75.29
35910;BME280;22004;49.120;-0.200;2023-07-29T08:20:59;100745.72;;;21.12;75.94
35910;BME280;22004;49.120;-0.200;2023-07-29T08:23:29;100748.72;;;20.77;77.31
35910;BME280;22004;49.120;-0.200;2023-07-29T08:25:57;100755.16;;;20.87;77.24
35910;BME280;22004;49.120;-0.200;2023-07-29T08:28:27;100752.13;;;21.01;76.78
35910;BME280;22004;49.120;-0.200;2023-07-29T08:30:53;100750.59;;;21.44;74.71
35910;BME280;22004;49.120;-0.200;2023-07-29T08:33:19;100753.25;;;23.17;70.33
35910;BME280;22004;49.120;-0.200;2023-07-29T08:35:44;100759.13;;;22.40;70.22
35910;BME280;22004;49.120;-0.200;2023-07-29T08:38:09;100757.19;;;22.67;70.50
35910;BME280;22004;49.120;-0.200;2023-07-29T08:40:37;100753.47;;;22.52;70.78
35910;BME280;22004;49.120;-0.200;2023-07-29T08:43:06;100763.00;;;23.51;69.11
35910;BME280;22004;49.120;-0.200;2023-07-29T08:45:35;100764.38;;;22.19;72.37
35910;BME280;22004;49.120;-0.200;2023-07-29T08:48:02;100756.63;;;21.67;73.60
35910;BME280;22004;49.120;-0.200;2023-07-29T08:50:32;100765.81;;;21.23;74.76
35910;BME280;22004;49.120;-0.200;2023-07-29T08:52:59;100766.97;;;21.27;75.13
35910;BME280;22004;49.120;-0.200;2023-07-29T08:55:26;100761.19;;;21.62;74.83
35910;BME280;22004;49.120;-0.200;2023-07-29T08:57:51;100756.56;;;21.40;75.55
35910;BME280;22004;49.120;-0.200;2023-07-29T09:00:17;100758.59;;;21.72;74.95
35910;BME280;22004;49.120;-0.200;2023-07-29T09:02:42;100763.59;;;22.02;73.41
35910;BME280;22004;49.120;-0.200;2023-07-29T09:05:08;100763.16;;;22.10;73.03
35910;BME280;22004;49.120;-0.200;2023-07-29T09:07:34;100767.91;;;22.15;73.55
35910;BME280;22004;49.120;-0.200;2023-07-29T09:10:01;100765.59;;;21.63;74.67
35910;BME280;22004;49.120;-0.200;2023-07-29T09:12:27;100767.06;;;21.32;75.66
35910;BME280;22004;49.120;-0.200;2023-07-29T09:14:52;100764.75;;;21.62;75.09
35910;BME280;22004;49.120;-0.200;2023-07-29T09:17:20;100763.66;;;21.41;75.72
35910;BME280;22004;49.120;-0.200;2023-07-29T09:19:49;100764.94;;;21.00;76.75
35910;BME280;22004;49.120;-0.200;2023-07-29T09:22:19;100761.38;;;20.83;77.90
35910;BME280;22004;49.120;-0.200;2023-07-29T09:24:46;100763.28;;;20.65;77.75
35910;BME280;22004;49.120;-0.200;2023-07-29T09:27:25;100764.66;;;20.68;79.07
35910;BME280;22004;49.120;-0.200;2023-07-29T09:29:52;100757.34;;;20.40;81.26
35910;BME280;22004;49.120;-0.200;2023-07-29T09:32:20;100766.41;;;20.29;80.77
35910;BME280;22004;49.120;-0.200;2023-07-29T09:34:46;100762.94;;;21.12;79.88
35910;BME280;22004;49.120;-0.200;2023-07-29T09:37:23;100762.44;;;20.82;77.57
35910;BME280;22004;49.120;-0.200;2023-07-29T09:39:48;100758.72;;;20.54;78.38
35910;BME280;22004;49.120;-0.200;2023-07-29T09:42:20;100765.53;;;20.40;79.49
35910;BME280;22004;49.120;-0.200;2023-07-29T09:44:46;100760.63;;;20.25;78.99
35910;BME280;22004;49.120;-0.200;2023-07-29T09:47:25;100770.63;;;20.36;78.70
35910;BME280;22004;49.120;-0.200;2023-07-29T09:49:52;100786.19;;;20.36;78.78
35910;BME280;22004;49.120;-0.200;2023-07-29T09:52:19;100782.03;;;20.33;78.88
35910;BME280;22004;49.120;-0.200;2023-07-29T09:54:46;100779.28;;;21.46;75.63
35910;BME280;22004;49.120;-0.200;2023-07-29T09:57:16;100788.41;;;22.39;72.56
35910;BME280;22004;49.120;-0.200;2023-07-29T09:59:42;100789.34;;;21.62;74.03
35910;BME280;22004;49.120;-0.200;2023-07-29T10:02:13;100807.16;;;21.65;74.69
35910;BME280;22004;49.120;-0.200;2023-07-29T10:04:41;100807.34;;;22.02;72.08
35910;BME280;22004;49.120;-0.200;2023-07-29T10:07:07;100812.00;;;22.02;73.85
35910;BME280;22004;49.120;-0.200;2023-07-29T10:09:33;100812.31;;;23.08;71.08
35910;BME280;22004;49.120;-0.200;2023-07-29T10:11:59;100807.63;;;22.23;71.97
35910;BME280;22004;49.120;-0.200;2023-07-29T10:14:27;100811.31;;;21.51;73.95
35910;BME280;22004;49.120;-0.200;2023-07-29T10:16:53;100810.16;;;21.47;74.71
35910;BME280;22004;49.120;-0.200;2023-07-29T10:19:19;100801.56;;;23.02;70.82
35910;BME280;22004;49.120;-0.200;2023-07-29T10:21:48;100799.72;;;23.97;67.08
35910;BME280;22004;49.120;-0.200;2023-07-29T10:24:18;100805.06;;;23.71;66.83
35910;BME280;22004;49.120;-0.200;2023-07-29T10:26:46;100811.69;;;23.33;68.91
35910;BME280;22004;49.120;-0.200;2023-07-29T10:29:13;100803.22;;;22.76;70.33
35910;BME280;22004;49.120;-0.200;2023-07-29T10:31:42;100801.66;;;22.04;70.58
35910;BME280;22004;49.120;-0.200;2023-07-29T10:34:08;100808.44;;;21.79;71.35
35910;BME280;22004;49.120;-0.200;2023-07-29T10:36:35;100807.00;;;22.96;68.81
35910;BME280;22004;49.120;-0.200;2023-07-29T10:39:01;100815.47;;;22.95;69.61
35910;BME280;22004;49.120;-0.200;2023-07-29T10:41:55;100809.34;;;24.10;65.05
35910;BME280;22004;49.120;-0.200;2023-07-29T10:47:19;100814.16;;;23.77;68.72
35910;BME280;22004;49.120;-0.200;2023-07-29T10:49:46;100811.97;;;22.73;68.25
35910;BME280;22004;49.120;-0.200;2023-07-29T10:52:28;100817.94;;;22.15;69.74
35910;BME280;22004;49.120;-0.200;2023-07-29T10:54:53;100819.25;;;21.91;70.66
35910;BME280;22004;49.120;-0.200;2023-07-29T10:59:57;100817.84;;;24.03;65.54
35910;BME280;22004;49.120;-0.200;2023-07-29T11:02:29;100820.94;;;24.22;65.14
35910;BME280;22004;49.120;-0.200;2023-07-29T11:04:56;100829.84;;;23.92;65.10
35910;BME280;22004;49.120;-0.200;2023-07-29T11:07:30;100823.53;;;23.91;63.55
35910;BME280;22004;49.120;-0.200;2023-07-29T11:10:04;100813.59;;;23.75;64.91
35910;BME280;22004;49.120;-0.200;2023-07-29T11:12:34;100820.25;;;24.72;58.56
35910;BME280;22004;49.120;-0.200;2023-07-29T11:15:29;100816.34;;;24.43;61.01
35910;BME280;22004;49.120;-0.200;2023-07-29T11:22:57;100810.59;;;24.60;57.78
35910;BME280;22004;49.120;-0.200;2023-07-29T11:25:24;100820.50;;;24.71;55.01
35910;BME280;22004;49.120;-0.200;2023-07-29T11:27:54;100814.34;;;24.28;57.35
35910;BME280;22004;49.120;-0.200;2023-07-29T11:30:20;100819.31;;;24.36;57.88
35910;BME280;22004;49.120;-0.200;2023-07-29T11:32:46;100817.22;;;24.74;54.53
35910;BME280;22004;49.120;-0.200;2023-07-29T11:35:17;100818.00;;;24.44;57.42
35910;BME280;22004;49.120;-0.200;2023-07-29T11:37:53;100826.28;;;25.00;55.10
35910;BME280;22004;49.120;-0.200;2023-07-29T11:40:21;100819.69;;;24.91;57.02
35910;BME280;22004;49.120;-0.200;2023-07-29T11:42:47;100823.81;;;24.93;56.95
35910;BME280;22004;49.120;-0.200;2023-07-29T11:45:14;100826.44;;;24.27;57.90
35910;BME280;22004;49.120;-0.200;2023-07-29T11:47:40;100822.81;;;24.16;57.67
35910;BME280;22004;49.120;-0.200;2023-07-29T11:50:07;100829.00;;;24.74;54.49
35910;BME280;22004;49.120;-0.200;2023-07-29T11:52:36;100838.66;;;24.92;53.77
35910;BME280;22004;49.120;-0.200;2023-07-29T11:55:04;100832.34;;;25.38;52.24
35910;BME280;22004;49.120;-0.200;2023-07-29T11:57:30;100825.97;;;24.71;55.71
35910;BME280;22004;49.120;-0.200;2023-07-29T11:59:55;100830.38;;;24.57;56.99
35910;BME280;22004;49.120;-0.200;2023-07-29T12:02:22;100833.34;;;24.40;56.43
35910;BME280;22004;49.120;-0.200;2023-07-29T12:04:48;100841.16;;;24.11;56.21
35910;BME280;22004;49.120;-0.200;2023-07-29T12:07:16;100836.66;;;24.47;54.15
35910;BME280;22004;49.120;-0.200;2023-07-29T12:09:43;100834.66;;;24.22;56.48
35910;BME280;22004;49.120;-0.200;2023-07-29T12:12:08;100839.97;;;24.59;54.15
35910;BME280;22004;49.120;-0.200;2023-07-29T12:14:34;100839.50;;;25.18;55.61
35910;BME280;22004;49.120;-0.200;2023-07-29T12:17:01;100834.53;;;25.00;56.24
35910;BME280;22004;49.120;-0.200;2023-07-29T12:19:34;100838.41;;;24.11;57.03
35910;BME280;22004;49.120;-0.200;2023-07-29T12:22:01;100835.63;;;24.01;56.25
35910;BME280;22004;49.120;-0.200;2023-07-29T12:24:26;100837.91;;;24.19;55.01
35910;BME280;22004;49.120;-0.200;2023-07-29T12:26:52;100843.44;;;24.29;53.33
35910;BME280;22004;49.120;-0.200;2023-07-29T12:29:19;100842.19;;;24.67;57.14
35910;BME280;22004;49.120;-0.200;2023-07-29T12:31:48;100835.13;;;25.12;52.11
35910;BME280;22004;49.120;-0.200;2023-07-29T12:34:20;100842.00;;;24.16;56.43
35910;BME280;22004;49.120;-0.200;2023-07-29T12:36:50;100843.97;;;24.26;55.96
35910;BME280;22004;49.120;-0.200;2023-07-29T12:39:20;100839.00;;;24.13;57.37
35910;BME280;22004;49.120;-0.200;2023-07-29T12:41:47;100833.94;;;24.52;55.57
35910;BME280;22004;49.120;-0.200;2023-07-29T12:44:13;100840.81;;;24.65;54.66
35910;BME280;22004;49.120;-0.200;2023-07-29T12:46:38;100829.59;;;23.93;56.69
35910;BME280;22004;49.120;-0.200;2023-07-29T12:49:04;100837.22;;;23.91;56.80
35910;BME280;22004;49.120;-0.200;2023-07-29T12:51:29;100836.94;;;23.83;57.50
35910;BME280;22004;49.120;-0.200;2023-07-29T12:53:56;100844.59;;;24.43;52.83